Time,TemperatureF,DewpointF,PressureIn,WindDirection,WindDirectionDegrees,WindSpeedMPH,WindSpeedGustMPH,Humidity,HourlyPrecipIn,Conditions,Clouds,dailyrainin,SoftwareType,DateUTC
2013-01-08 00:00:00,23.8,18.5,29.92,South,180,0.0,0.0,80,0.00,,,0.00,WUHU216HW,2013-01-08 06:00:00,
2013-01-08 00:05:00,23.8,18.5,29.92,South,180,0.0,0.0,80,0.00,,,0.00,WUHU216HW,2013-01-08 06:05:00,
2013-01-08 00:10:00,23.8,18.5,29.92,South,180,0.0,0.0,80,0.00,,,0.00,WUHU216HW,2013-01-08 06:10:00,
2013-01-08 00:30:00,22.9,17.6,29.92,SSW,203,0.0,0.0,80,0.00,,,0.00,WUHU216HW,2013-01-08 06:30:00,
2013-01-08 00:35:00,22.9,17.6,29.92,SSW,203,0.0,0.4,80,0.00,,,0.00,WUHU216HW,2013-01-08 06:35:00,
2013-01-08 00:40:00,22.9,17.6,29.92,SSW,203,0.0,0.4,80,0.00,,,0.00,WUHU216HW,2013-01-08 06:40:00,
2013-01-08 01:00:00,21.6,16.4,29.92,SSE,158,0.4,0.4,80,0.00,,,0.00,WUHU216HW,2013-01-08 07:00:00,
2013-01-08 01:05:00,21.6,16.4,29.92,SSE,158,0.4,0.4,80,0.00,,,0.00,WUHU216HW,2013-01-08 07:05:00,
2013-01-08 01:10:00,21.6,16.4,29.92,SSE,158,0.4,0.4,80,0.00,,,0.00,WUHU216HW,2013-01-08 07:10:00,
2013-01-08 01:30:00,21.6,16.4,29.92,SSE,158,0.9,0.9,80,0.00,,,0.00,WUHU216HW,2013-01-08 07:30:00,
2013-01-08 01:35:00,21.6,16.4,29.92,SSE,158,0.9,0.9,80,0.00,,,0.00,WUHU216HW,2013-01-08 07:35:00,
2013-01-08 01:40:00,21.6,16.4,29.92,SSE,158,0.9,0.9,80,0.00,,,0.00,WUHU216HW,2013-01-08 07:40:00,
2013-01-08 02:00:00,20.3,15.1,29.93,SSE,158,0.4,0.4,80,0.00,,,0.00,WUHU216HW,2013-01-08 08:00:00,
2013-01-08 02:05:00,20.3,15.1,29.93,SSE,158,0.4,0.4,80,0.00,,,0.00,WUHU216HW,2013-01-08 08:05:00,
2013-01-08 02:10:00,20.3,15.1,29.93,SSE,158,0.4,0.4,80,0.00,,,0.00,WUHU216HW,2013-01-08 08:10:00,
2013-01-08 02:30:00,18.4,13.4,29.93,WNW,293,0.7,0.7,81,0.00,,,0.00,WUHU216HW,2013-01-08 08:30:00,
2013-01-08 02:35:00,18.4,13.4,29.93,SW,225,0.4,0.7,81,0.00,,,0.00,WUHU216HW,2013-01-08 08:35:00,
2013-01-08 02:40:00,18.4,13.4,29.93,SW,225,0.4,0.7,81,0.00,,,0.00,WUHU216HW,2013-01-08 08:40:00,
2013-01-08 03:00:00,18.9,14.0,29.93,SE,135,0.7,0.7,81,0.00,,,0.00,WUHU216HW,2013-01-08 09:00:00,
2013-01-08 03:05:00,18.9,14.0,29.93,SE,135,0.7,0.7,81,0.00,,,0.00,WUHU216HW,2013-01-08 09:05:00,
2013-01-08 03:10:00,18.9,14.0,29.93,SE,135,0.7,0.7,81,0.00,,,0.00,WUHU216HW,2013-01-08 09:10:00,
2013-01-08 03:30:00,18.0,13.1,29.93,ENE,68,0.9,0.9,81,0.00,,,0.00,WUHU216HW,2013-01-08 09:30:00,
2013-01-08 03:35:00,18.0,13.1,29.93,ENE,68,0.9,0.9,81,0.00,,,0.00,WUHU216HW,2013-01-08 09:35:00,
2013-01-08 03:40:00,18.0,13.1,29.93,ENE,68,0.9,0.9,81,0.00,,,0.00,WUHU216HW,2013-01-08 09:40:00,
2013-01-08 04:00:00,15.7,10.9,29.92,North,0,1.3,1.3,81,0.00,,,0.00,WUHU216HW,2013-01-08 10:00:00,
2013-01-08 04:05:00,15.5,10.7,29.92,North,0,1.1,1.3,81,0.00,,,0.00,WUHU216HW,2013-01-08 10:05:00,
2013-01-08 04:10:00,15.5,10.7,29.92,North,0,1.1,1.3,81,0.00,,,0.00,WUHU216HW,2013-01-08 10:10:00,
2013-01-08 04:30:00,14.6,9.8,29.91,SE,135,0.0,0.0,81,0.00,,,0.00,WUHU216HW,2013-01-08 10:30:00,
2013-01-08 04:35:00,14.6,9.8,29.91,SE,135,0.0,0.0,81,0.00,,,0.00,WUHU216HW,2013-01-08 10:35:00,
2013-01-08 04:40:00,14.6,9.8,29.91,SE,135,0.0,0.0,81,0.00,,,0.00,WUHU216HW,2013-01-08 10:40:00,
2013-01-08 05:00:00,13.3,8.8,29.90,SE,135,0.9,0.9,82,0.00,,,0.00,WUHU216HW,2013-01-08 11:00:00,
2013-01-08 05:05:00,13.3,8.8,29.90,SE,135,0.4,0.9,82,0.00,,,0.00,WUHU216HW,2013-01-08 11:05:00,
2013-01-08 05:10:00,13.3,8.8,29.90,SE,135,0.4,0.4,82,0.00,,,0.00,WUHU216HW,2013-01-08 11:10:00,
2013-01-08 05:30:00,12.6,7.8,29.91,SSE,158,0.7,0.7,81,0.00,,,0.00,WUHU216HW,2013-01-08 11:30:00,
2013-01-08 05:35:00,12.6,7.8,29.91,SSE,158,0.4,0.7,81,0.00,,,0.00,WUHU216HW,2013-01-08 11:35:00,
2013-01-08 05:40:00,12.6,7.8,29.91,SSE,158,0.4,0.7,81,0.00,,,0.00,WUHU216HW,2013-01-08 11:40:00,
2013-01-08 06:00:00,16.9,12.1,29.90,SE,135,0.4,0.4,81,0.00,,,0.00,WUHU216HW,2013-01-08 12:00:00,
2013-01-08 06:05:00,16.9,12.1,29.90,SE,135,0.0,0.4,81,0.00,,,0.00,WUHU216HW,2013-01-08 12:05:00,
2013-01-08 06:10:00,16.9,12.1,29.90,SE,135,0.0,0.2,81,0.00,,,0.00,WUHU216HW,2013-01-08 12:10:00,
2013-01-08 06:30:00,14.9,10.2,29.91,SE,135,1.1,1.1,81,0.00,,,0.00,WUHU216HW,2013-01-08 12:30:00,
2013-01-08 06:35:00,14.9,10.2,29.91,SSE,158,1.1,1.1,81,0.00,,,0.00,WUHU216HW,2013-01-08 12:35:00,
2013-01-08 06:40:00,14.9,10.2,29.91,SSE,158,1.1,1.1,81,0.00,,,0.00,WUHU216HW,2013-01-08 12:40:00,
2013-01-08 07:00:00,16.7,11.9,29.91,SSE,158,2.5,2.5,81,0.00,,,0.00,WUHU216HW,2013-01-08 13:00:00,
2013-01-08 07:05:00,16.7,11.9,29.91,SSE,158,2.0,2.5,81,0.00,,,0.00,WUHU216HW,2013-01-08 13:05:00,
2013-01-08 07:10:00,16.7,11.9,29.91,SSE,158,2.0,2.5,81,0.00,,,0.00,WUHU216HW,2013-01-08 13:10:00,
2013-01-08 07:30:00,18.4,13.7,29.91,SE,135,1.8,1.8,82,0.00,,,0.00,WUHU216HW,2013-01-08 13:30:00,
2013-01-08 07:35:00,18.4,13.7,29.91,SE,135,1.8,1.8,82,0.00,,,0.00,WUHU216HW,2013-01-08 13:35:00,
2013-01-08 07:40:00,18.4,13.7,29.91,SE,135,1.8,1.8,82,0.00,,,0.00,WUHU216HW,2013-01-08 13:40:00,
2013-01-08 08:00:00,18.7,14.0,29.90,ENE,68,1.1,1.1,82,0.00,,,0.00,WUHU216HW,2013-01-08 14:00:00,
2013-01-08 08:05:00,18.7,14.0,29.90,East,90,0.4,1.1,82,0.00,,,0.00,WUHU216HW,2013-01-08 14:05:00,
2013-01-08 08:10:00,18.7,14.0,29.90,East,90,0.4,0.4,82,0.00,,,0.00,WUHU216HW,2013-01-08 14:10:00,
2013-01-08 08:30:00,20.5,15.6,29.92,SSE,158,4.3,4.3,81,0.00,,,0.00,WUHU216HW,2013-01-08 14:30:00,
2013-01-08 08:35:00,20.5,15.6,29.91,SSE,158,5.4,5.4,81,0.00,,,0.00,WUHU216HW,2013-01-08 14:35:00,
2013-01-08 08:40:00,20.5,15.6,29.91,SSE,158,5.4,5.4,81,0.00,,,0.00,WUHU216HW,2013-01-08 14:40:00,
2013-01-08 09:00:00,21.6,16.7,29.92,SSE,158,6.9,6.9,81,0.00,,,0.00,WUHU216HW,2013-01-08 15:00:00,
2013-01-08 09:05:00,21.6,16.7,29.92,SSE,158,6.3,6.9,81,0.00,,,0.00,WUHU216HW,2013-01-08 15:05:00,
2013-01-08 09:10:00,21.6,16.7,29.92,SSE,158,6.3,6.3,81,0.00,,,0.00,WUHU216HW,2013-01-08 15:10:00,
2013-01-08 09:30:00,23.0,17.8,29.90,ESE,113,5.8,5.8,80,0.00,,,0.00,WUHU216HW,2013-01-08 15:30:00,
2013-01-08 09:35:00,23.0,17.8,29.90,ESE,113,5.1,5.8,80,0.00,,,0.00,WUHU216HW,2013-01-08 15:35:00,
2013-01-08 09:40:00,23.0,17.8,29.90,ESE,113,5.1,5.8,80,0.00,,,0.00,WUHU216HW,2013-01-08 15:40:00,
2013-01-08 10:00:00,25.2,20.0,29.89,East,90,5.1,5.1,80,0.00,,,0.00,WUHU216HW,2013-01-08 16:00:00,
2013-01-08 10:05:00,25.0,19.8,29.89,ESE,113,4.7,5.1,80,0.00,,,0.00,WUHU216HW,2013-01-08 16:05:00,
2013-01-08 10:10:00,25.0,19.8,29.89,ESE,113,4.7,5.1,80,0.00,,,0.00,WUHU216HW,2013-01-08 16:10:00,
2013-01-08 10:30:00,26.3,21.3,29.88,SE,135,6.5,6.5,81,0.00,,,0.00,WUHU216HW,2013-01-08 16:30:00,
2013-01-08 10:35:00,26.3,21.3,29.88,SE,135,4.3,6.5,81,0.00,,,0.00,WUHU216HW,2013-01-08 16:35:00,
2013-01-08 10:40:00,26.3,21.3,29.88,SE,135,4.3,4.3,81,0.00,,,0.00,WUHU216HW,2013-01-08 16:40:00,
2013-01-08 11:00:00,27.5,22.1,29.86,NE,45,1.1,1.1,80,0.00,,,0.00,WUHU216HW,2013-01-08 17:00:00,
2013-01-08 11:05:00,27.5,22.1,29.86,NE,45,1.1,1.1,80,0.00,,,0.00,WUHU216HW,2013-01-08 17:05:00,
2013-01-08 11:10:00,27.5,22.1,29.86,NE,45,1.1,1.1,80,0.00,,,0.00,WUHU216HW,2013-01-08 17:10:00,
2013-01-08 11:30:00,30.8,25.0,29.84,SSE,158,4.0,4.0,79,0.00,,,0.00,WUHU216HW,2013-01-08 17:30:00,
2013-01-08 11:35:00,30.8,24.8,29.84,ENE,68,2.0,4.0,78,0.00,,,0.00,WUHU216HW,2013-01-08 17:35:00,
2013-01-08 11:40:00,30.8,24.8,29.84,ENE,68,2.0,2.0,78,0.00,,,0.00,WUHU216HW,2013-01-08 17:40:00,
2013-01-08 12:00:00,31.5,24.9,29.83,East,90,4.0,4.0,76,0.00,,,0.00,WUHU216HW,2013-01-08 18:00:00,
2013-01-08 12:05:00,31.5,24.9,29.83,ESE,113,3.4,4.0,76,0.00,,,0.00,WUHU216HW,2013-01-08 18:05:00,
2013-01-08 12:10:00,31.5,24.9,29.83,ESE,113,3.4,3.4,76,0.00,,,0.00,WUHU216HW,2013-01-08 18:10:00,
2013-01-08 12:30:00,31.7,25.0,29.82,ENE,68,3.4,3.4,76,0.00,,,0.00,WUHU216HW,2013-01-08 18:30:00,
2013-01-08 12:35:00,31.7,25.0,29.81,ENE,68,3.4,3.4,76,0.00,,,0.00,WUHU216HW,2013-01-08 18:35:00,
2013-01-08 12:40:00,31.7,25.0,29.81,ENE,68,3.4,3.4,76,0.00,,,0.00,WUHU216HW,2013-01-08 18:40:00,
2013-01-08 13:00:00,32.8,25.7,29.79,ESE,113,4.3,4.3,75,0.00,,,0.00,WUHU216HW,2013-01-08 19:00:00,
2013-01-08 13:05:00,32.8,25.7,29.79,SE,135,4.0,4.3,75,0.00,,,0.00,WUHU216HW,2013-01-08 19:05:00,
2013-01-08 13:10:00,32.8,25.7,29.79,SE,135,4.0,4.3,75,0.00,,,0.00,WUHU216HW,2013-01-08 19:10:00,
2013-01-08 13:30:00,34.2,26.4,29.76,ESE,113,5.6,5.6,73,0.00,,,0.00,WUHU216HW,2013-01-08 19:30:00,
2013-01-08 13:35:00,34.0,26.2,29.76,SSE,158,6.9,6.9,73,0.00,,,0.00,WUHU216HW,2013-01-08 19:35:00,
2013-01-08 13:40:00,34.0,26.2,29.76,SSE,158,6.9,6.9,73,0.00,,,0.00,WUHU216HW,2013-01-08 19:40:00,
2013-01-08 14:00:00,34.6,26.7,29.75,SE,135,7.2,7.2,73,0.00,,,0.00,WUHU216HW,2013-01-08 20:00:00,
2013-01-08 14:05:00,34.6,26.7,29.75,South,180,5.6,7.2,73,0.00,,,0.00,WUHU216HW,2013-01-08 20:05:00,
2013-01-08 14:10:00,34.6,26.7,29.75,South,180,5.6,5.6,73,0.00,,,0.00,WUHU216HW,2013-01-08 20:10:00,
2013-01-08 14:30:00,36.2,28.0,29.73,ESE,113,7.6,7.6,72,0.00,,,0.00,WUHU216HW,2013-01-08 20:30:00,
2013-01-08 14:35:00,36.2,28.0,29.73,ESE,113,9.4,10.1,72,0.00,,,0.00,WUHU216HW,2013-01-08 20:35:00,
2013-01-08 14:36:00,36.2,28.0,29.73,ESE,113,9.4,10.1,72,0.00,,,0.00,WUHU216HW,2013-01-08 20:36:00,
2013-01-08 14:40:00,36.2,28.0,29.73,ESE,113,9.4,10.1,72,0.00,,,0.00,WUHU216HW,2013-01-08 20:40:00,
2013-01-08 15:00:00,36.5,28.1,29.72,South,180,8.5,8.5,71,0.01,,,0.00,WUHU216HW,2013-01-08 21:00:00,
2013-01-08 15:05:00,36.4,27.9,29.72,SE,135,9.2,9.2,71,0.01,,,0.01,WUHU216HW,2013-01-08 21:05:00,
2013-01-08 15:10:00,36.4,27.9,29.72,SE,135,9.2,9.2,71,0.01,,,0.01,WUHU216HW,2013-01-08 21:10:00,
2013-01-08 15:30:00,35.1,27.3,29.70,SSE,158,8.5,8.5,73,0.01,,,0.01,WUHU216HW,2013-01-08 21:30:00,
2013-01-08 15:35:00,35.3,27.5,29.71,SSE,158,8.5,8.5,73,0.01,,,0.01,WUHU216HW,2013-01-08 21:35:00,
2013-01-08 15:40:00,35.3,27.5,29.71,SSE,158,8.5,8.5,73,0.01,,,0.01,WUHU216HW,2013-01-08 21:40:00,
2013-01-08 16:00:00,34.2,27.0,29.71,SE,135,7.6,7.6,75,0.00,,,0.01,WUHU216HW,2013-01-08 22:00:00,
2013-01-08 16:05:00,34.2,27.0,29.71,SE,135,8.3,8.3,75,0.00,,,0.01,WUHU216HW,2013-01-08 22:05:00,
2013-01-08 16:10:00,34.2,27.0,29.71,SE,135,8.3,8.3,75,0.00,,,0.01,WUHU216HW,2013-01-08 22:10:00,
2013-01-08 16:30:00,33.5,26.6,29.71,South,180,9.2,9.2,76,0.00,,,0.01,WUHU216HW,2013-01-08 22:30:00,
2013-01-08 16:35:00,33.5,26.6,29.71,South,180,9.4,9.4,76,0.00,,,0.01,WUHU216HW,2013-01-08 22:35:00,
2013-01-08 16:40:00,33.5,26.6,29.71,South,180,9.4,9.4,76,0.00,,,0.01,WUHU216HW,2013-01-08 22:40:00,
2013-01-08 17:00:00,32.9,26.8,29.72,SE,135,4.7,4.7,78,0.00,,,0.01,WUHU216HW,2013-01-08 23:00:00,
2013-01-08 17:05:00,32.9,26.8,29.72,SE,135,4.7,4.7,78,0.00,,,0.01,WUHU216HW,2013-01-08 23:05:00,
2013-01-08 17:30:00,32.9,26.8,29.71,South,180,5.4,5.4,78,0.00,,,0.01,WUHU216HW,2013-01-08 23:30:00,
2013-01-08 17:35:00,32.9,26.8,29.71,SSE,158,2.2,5.8,78,0.00,,,0.01,WUHU216HW,2013-01-08 23:35:00,
2013-01-08 17:40:00,32.9,26.8,29.71,SSE,158,2.2,5.8,78,0.00,,,0.01,WUHU216HW,2013-01-08 23:40:00,
2013-01-08 18:00:00,32.9,27.1,29.71,SE,135,3.4,3.4,79,0.00,,,0.01,WUHU216HW,2013-01-09 00:00:00,
2013-01-08 18:05:00,32.9,27.1,29.71,South,180,4.0,4.0,79,0.00,,,0.01,WUHU216HW,2013-01-09 00:05:00,
2013-01-08 18:10:00,32.9,27.1,29.71,South,180,4.0,4.0,79,0.00,,,0.01,WUHU216HW,2013-01-09 00:10:00,
2013-01-08 18:30:00,33.3,27.5,29.71,SSE,158,1.1,1.1,79,0.00,,,0.01,WUHU216HW,2013-01-09 00:30:00,
2013-01-08 18:35:00,33.3,27.5,29.71,SSE,158,1.1,1.1,79,0.00,,,0.01,WUHU216HW,2013-01-09 00:35:00,
2013-01-08 18:40:00,33.3,27.5,29.71,SSE,158,1.1,1.1,79,0.00,,,0.01,WUHU216HW,2013-01-09 00:40:00,
2013-01-08 19:00:00,33.7,27.8,29.72,SW,225,9.8,9.8,79,0.00,,,0.01,WUHU216HW,2013-01-09 01:00:00,
2013-01-08 19:05:00,33.5,27.6,29.72,SSW,203,7.4,9.8,79,0.00,,,0.01,WUHU216HW,2013-01-09 01:05:00,
2013-01-08 19:10:00,33.5,27.6,29.72,SSW,203,7.4,7.4,79,0.00,,,0.01,WUHU216HW,2013-01-09 01:10:00,
2013-01-08 19:30:00,33.3,27.5,29.72,SSW,203,7.6,7.6,79,0.00,,,0.01,WUHU216HW,2013-01-09 01:30:00,
2013-01-08 19:35:00,33.3,27.5,29.73,SSW,203,10.5,10.5,79,0.00,,,0.01,WUHU216HW,2013-01-09 01:35:00,
2013-01-08 19:40:00,33.3,27.5,29.73,SSW,203,10.5,10.5,79,0.00,,,0.01,WUHU216HW,2013-01-09 01:40:00,
2013-01-08 20:00:00,32.8,27.3,29.73,WSW,248,8.5,8.5,80,0.00,,,0.01,WUHU216HW,2013-01-09 02:00:00,
2013-01-08 20:05:00,32.8,27.3,29.73,SW,225,6.3,8.5,80,0.00,,,0.01,WUHU216HW,2013-01-09 02:05:00,
2013-01-08 20:10:00,32.8,27.3,29.73,SW,225,6.3,7.8,80,0.00,,,0.01,WUHU216HW,2013-01-09 02:10:00,
2013-01-08 20:30:00,32.2,26.8,29.74,West,270,3.8,3.8,80,0.00,,,0.01,WUHU216HW,2013-01-09 02:30:00,
2013-01-08 20:35:00,32.2,26.8,29.74,SW,225,6.5,6.5,80,0.00,,,0.01,WUHU216HW,2013-01-09 02:35:00,
2013-01-08 20:40:00,32.2,26.8,29.74,SW,225,6.5,6.5,80,0.00,,,0.01,WUHU216HW,2013-01-09 02:40:00,
2013-01-08 21:00:00,31.7,25.9,29.75,WNW,293,3.4,3.4,79,0.00,,,0.01,WUHU216HW,2013-01-09 03:00:00,
2013-01-08 21:05:00,31.7,25.9,29.75,West,270,4.3,4.3,79,0.00,,,0.01,WUHU216HW,2013-01-09 03:05:00,
2013-01-08 21:10:00,31.7,25.9,29.75,West,270,4.3,4.3,79,0.00,,,0.01,WUHU216HW,2013-01-09 03:10:00,
2013-01-08 21:30:00,30.6,24.8,29.76,SSW,203,8.7,8.7,79,0.00,,,0.01,WUHU216HW,2013-01-09 03:30:00,
2013-01-08 21:35:00,30.6,24.8,29.76,South,180,5.6,8.7,79,0.00,,,0.01,WUHU216HW,2013-01-09 03:35:00,
2013-01-08 21:36:00,30.6,24.8,29.76,South,180,5.6,8.7,79,0.00,,,0.01,WUHU216HW,2013-01-09 03:36:00,
2013-01-08 21:40:00,30.6,24.8,29.76,South,180,5.6,5.6,79,0.00,,,0.01,WUHU216HW,2013-01-09 03:40:00,
2013-01-08 22:00:00,30.4,24.7,29.78,WSW,248,6.5,6.5,79,0.00,,,0.01,WUHU216HW,2013-01-09 04:00:00,
2013-01-08 22:05:00,30.4,24.7,29.78,SSW,203,6.3,6.5,79,0.00,,,0.01,WUHU216HW,2013-01-09 04:05:00,
2013-01-08 22:10:00,30.4,24.7,29.78,SSW,203,6.3,6.5,79,0.00,,,0.01,WUHU216HW,2013-01-09 04:10:00,
2013-01-08 22:30:00,31.0,25.2,29.78,West,270,4.9,4.9,79,0.00,,,0.01,WUHU216HW,2013-01-09 04:30:00,
2013-01-08 22:35:00,31.0,25.2,29.78,WSW,248,5.4,5.4,79,0.00,,,0.01,WUHU216HW,2013-01-09 04:35:00,
2013-01-08 22:40:00,31.0,25.2,29.78,WSW,248,5.4,5.4,79,0.00,,,0.01,WUHU216HW,2013-01-09 04:40:00,
2013-01-08 23:00:00,29.9,24.1,29.80,WSW,248,3.1,3.1,79,0.00,,,0.01,WUHU216HW,2013-01-09 05:00:00,
2013-01-08 23:01:00,29.9,24.1,29.80,SW,225,4.3,4.3,79,0.00,,,0.01,WUHU216HW,2013-01-09 05:01:00,
2013-01-08 23:05:00,29.9,24.1,29.80,SW,225,4.3,4.3,79,0.00,,,0.01,WUHU216HW,2013-01-09 05:05:00,
2013-01-08 23:06:00,29.9,24.1,29.80,SW,225,4.3,4.3,79,0.00,,,0.01,WUHU216HW,2013-01-09 05:06:00,
2013-01-08 23:10:00,29.9,24.1,29.80,SW,225,4.3,4.3,79,0.00,,,0.01,WUHU216HW,2013-01-09 05:10:00,
2013-01-08 23:30:00,29.9,24.1,29.81,SW,225,3.8,3.8,79,0.00,,,0.01,WUHU216HW,2013-01-09 05:30:00,
2013-01-08 23:35:00,29.9,24.1,29.81,WSW,248,4.5,4.5,79,0.00,,,0.01,WUHU216HW,2013-01-09 05:35:00,
2013-01-08 23:40:00,29.9,24.1,29.81,WSW,248,4.5,4.5,79,0.00,,,0.01,WUHU216HW,2013-01-09 05:40:00,